Watkins, Iowa
Current Conditions -  °F | °C
As of 9:52 AM on Wednesday 28 Jan 2015 (Local Time) from KCID Reporting Station
Clear Clear  
Wind Chill: 18°   Ceiling: Unl
Heat Index: 30°   Visibility: 7mi
Dew Point: 25°   Wind: 18mph
Humidity: 82%   Direction: 130°SE
Pressure: 30.04"   Gusts: 24mph
Location:  41.89°N, 91.99°W
Report Text: KCID 281552Z 13016G21KT 7SM CLR M01/M04 A3004 RMK AO2 SLP185 T10111039
Loading
Personal Weather Stations






























Interactive Weather Map New forecast layout! Learn more

10-Day Weather Forecast

Advertisements
Track Severe Weather on mobile